PABL

Details ICAO PABL (BKC)
Name BUCKLAND
Region USA (Alaska)
Timezone America/Anchorage (UTC-9.0)
Plans Departing 0
Arriving 1
Stats Elevation 29 ft / 9 m (AMSL)
Location 65.981565° -161.149127°
Runways 2
Magnetic Variation 12.162° E
Sunrise 2017-12-13 21:09:32 UTC / 2017-12-13 12:09:32 Local
Sunset 2017-12-14 00:11:19 UTC / 2017-12-13 15:11:19 Local
Advertisement - Login to hide

Runways

ID Width Length Bearing (true) Bearing (mag) Surface Threshold Offset Overrun Length
10 75 ft / 23 m 3,189 ft / 972 m 121.81° 109.65° Gravel 0 ft / 0 m 300 ft / 91 m
11 75 ft / 23 m 3,203 ft / 976 m 121.99° 109.83° Gravel 0 ft / 0 m 0 ft / 0 m
28 75 ft / 23 m 3,189 ft / 972 m 301.83° 289.67° Gravel 0 ft / 0 m 300 ft / 91 m
29 75 ft / 23 m 3,203 ft / 976 m 302.01° 289.85° Gravel 0 ft / 0 m 0 ft / 0 m

Map

Weather


0- 5 10 15 20 25 30 35+ Temperature / ° C

Clouds and Precipitation
Forecast for 2017-12-14 12:00 UTC. Updated an hour ago

Ground ~20,000 ft ~40,000 ft Winds

METAR

PABL 140956Z AUTO 15008KT 9SM UP OVC010 M01/M02 A2941 RMK AO2 UPB20SNE20 SLP960 P0000 T10111017 FZRANO

TAF

Not found

Frequencies

Recorded 135.15 MHz AWOS 3
Unicom 122.30 MHz RCO Kotzebue
Unicom 122.90 MHz CTAF
Approach 119.20 MHz Anchorage
Warning: Do not use this data for real-world aviation or navigation. No guarantee of current accuracy is given.